createdAt,value
2022-12-23T00:04:07.121Z,2.47
2022-12-23T00:09:09.954Z,2.88
2022-12-23T00:14:31.667Z,2.97
2022-12-23T00:19:34.394Z,3.53
2022-12-23T00:24:37.163Z,1.52
2022-12-23T00:29:39.870Z,1.70
2022-12-23T00:34:42.546Z,1.45
2022-12-23T00:40:06.769Z,1.75
2022-12-23T00:45:16.334Z,2.33
2022-12-23T00:50:19.073Z,1.70
2022-12-23T00:55:22.138Z,1.67
2022-12-23T01:00:45.381Z,1.40
2022-12-23T01:05:48.170Z,1.67
2022-12-23T01:10:50.876Z,1.98
2022-12-23T01:15:53.705Z,2.10
2022-12-23T01:21:01.037Z,4.28
2022-12-23T01:26:06.985Z,1.88
2022-12-23T01:31:11.209Z,2.28
2022-12-23T01:36:14.378Z,4.17
2022-12-23T01:41:45.816Z,6.47
2022-12-23T01:46:48.476Z,3.45
2022-12-23T01:51:51.254Z,7.93
2022-12-23T01:56:54.108Z,3.20
2022-12-23T02:02:15.368Z,3.15
2022-12-23T02:07:37.191Z,4.75
2022-12-23T02:13:14.931Z,3.05
2022-12-23T02:18:54.960Z,7.45
2022-12-23T02:24:21.868Z,3.13
2022-12-23T02:29:58.322Z,5.22
2022-12-23T02:35:46.586Z,2.70
2022-12-23T02:41:04.565Z,6.63
2022-12-23T02:46:38.429Z,3.35
2022-12-23T02:51:46.756Z,2.80
2022-12-23T02:56:52.497Z,3.20
2022-12-23T03:02:12.758Z,2.22
2022-12-23T03:07:28.603Z,3.28
2022-12-23T03:17:59.951Z,1.20
2022-12-23T03:23:23.130Z,2.53
2022-12-23T03:28:49.375Z,0.95
2022-12-23T03:34:16.414Z,1.73
2022-12-23T03:39:23.456Z,1.27
2022-12-23T03:44:33.070Z,1.85
2022-12-23T03:49:48.528Z,1.55
2022-12-23T03:54:56.171Z,1.35
2022-12-23T03:59:58.918Z,1.83
2022-12-23T04:05:09.886Z,2.08
2022-12-23T04:10:13.313Z,2.03
2022-12-23T04:15:24.246Z,2.85
2022-12-23T04:20:26.901Z,2.95
2022-12-23T04:25:29.925Z,3.15
2022-12-23T04:30:34.695Z,4.53
2022-12-23T04:40:40.420Z,4.45
2022-12-23T04:45:43.130Z,4.28
2022-12-23T04:50:46.155Z,3.50
2022-12-23T04:55:52.488Z,5.80
2022-12-23T05:01:12.305Z,8.40
2022-12-23T05:06:14.879Z,11.68
2022-12-23T05:11:17.441Z,16.85
2022-12-23T05:16:20.189Z,14.13
2022-12-23T05:21:22.772Z,19.88
2022-12-23T05:26:25.360Z,24.85
2022-12-23T05:31:28.533Z,14.73
2022-12-23T05:36:31.094Z,19.30
2022-12-23T05:41:33.646Z,24.55
2022-12-23T05:46:36.236Z,26.08
2022-12-23T05:51:38.837Z,26.23
2022-12-23T05:56:41.655Z,10.57
2022-12-23T06:01:44.344Z,12.07
2022-12-23T06:06:47.064Z,32.45
2022-12-23T06:11:50.084Z,36.78
2022-12-23T06:16:52.809Z,38.70
2022-12-23T06:21:55.552Z,32.92
2022-12-23T06:26:58.095Z,25.63
2022-12-23T06:32:00.913Z,38.08
2022-12-23T06:37:03.631Z,30.10
2022-12-23T06:42:06.226Z,25.92
2022-12-23T06:47:08.806Z,30.77
2022-12-23T06:52:11.388Z,32.80
2022-12-23T06:57:14.141Z,19.02
2022-12-23T07:02:17.070Z,17.23
2022-12-23T07:07:19.899Z,31.70
2022-12-23T07:12:22.528Z,45.80
2022-12-23T07:17:25.091Z,35.15
2022-12-23T07:22:27.634Z,19.98
2022-12-23T07:27:31.224Z,14.43
2022-12-23T07:32:34.025Z,8.35
2022-12-23T07:37:36.603Z,8.77
2022-12-23T07:42:47.150Z,11.38
2022-12-23T07:47:57.639Z,10.50
2022-12-23T07:53:00.278Z,13.18
2022-12-23T07:58:03.009Z,8.35
2022-12-23T08:03:05.671Z,7.40
2022-12-23T08:08:08.512Z,9.65
2022-12-23T08:13:11.085Z,7.35
2022-12-23T08:18:13.659Z,12.82
2022-12-23T08:23:21.384Z,7.13
2022-12-23T08:28:27.901Z,6.43
2022-12-23T08:33:31.064Z,8.43
2022-12-23T08:38:34.177Z,11.05
2022-12-23T08:43:37.027Z,8.80
2022-12-23T08:48:45.175Z,10.00
2022-12-23T08:53:59.553Z,7.32
2022-12-23T08:59:04.201Z,8.20
2022-12-23T09:04:08.349Z,5.65
2022-12-23T09:09:16.160Z,12.57
2022-12-23T09:14:18.715Z,10.45
2022-12-23T09:19:21.333Z,7.13
2022-12-23T09:24:24.393Z,7.15
2022-12-23T09:29:26.963Z,9.85
2022-12-23T09:34:32.307Z,10.00
2022-12-23T09:39:34.988Z,13.63
2022-12-23T09:44:55.308Z,17.90
2022-12-23T09:50:03.597Z,19.33
2022-12-23T09:55:11.678Z,14.50
2022-12-23T10:00:20.208Z,9.48
2022-12-23T10:06:17.855Z,10.40
2022-12-23T10:11:33.791Z,7.72
2022-12-23T10:16:41.560Z,13.55
2022-12-23T10:21:54.951Z,10.18
2022-12-23T10:27:12.536Z,11.65
2022-12-23T10:32:21.047Z,11.63
2022-12-23T10:37:52.708Z,18.33
2022-12-23T10:43:10.409Z,9.90
2022-12-23T10:48:21.162Z,16.98
2022-12-23T10:53:39.650Z,10.50
2022-12-23T10:58:46.769Z,11.05
2022-12-23T11:04:08.851Z,7.90
2022-12-23T11:09:21.756Z,10.13
2022-12-23T11:14:42.412Z,9.60
2022-12-23T11:19:45.085Z,5.55
2022-12-23T11:24:48.029Z,6.43
2022-12-23T11:29:54.458Z,6.90
2022-12-23T11:34:57.421Z,10.70
2022-12-23T11:40:00.548Z,29.27
2022-12-23T11:45:09.061Z,32.83
2022-12-23T11:50:39.828Z,20.25
2022-12-23T11:56:02.992Z,10.90
2022-12-23T12:01:16.525Z,12.13
2022-12-23T12:06:21.777Z,8.00
2022-12-23T12:11:38.382Z,8.30
2022-12-23T12:17:08.500Z,6.28
2022-12-23T12:22:22.330Z,7.47
2022-12-23T12:27:36.363Z,12.32
2022-12-23T12:33:08.588Z,8.77
2022-12-23T12:38:24.069Z,4.72
2022-12-23T12:43:41.104Z,3.50
2022-12-23T12:48:53.931Z,5.90
2022-12-23T12:54:37.111Z,5.15
2022-12-23T12:59:40.956Z,6.53
2022-12-23T13:05:01.560Z,7.77
2022-12-23T13:10:15.978Z,9.27
2022-12-23T13:15:31.410Z,7.97
2022-12-23T13:20:57.650Z,6.65
2022-12-23T13:26:13.104Z,11.68
2022-12-23T13:31:56.316Z,7.63
2022-12-23T13:37:41.227Z,7.72
2022-12-23T13:42:52.616Z,9.00
2022-12-23T13:48:25.909Z,20.88
2022-12-23T13:53:50.020Z,10.90
2022-12-23T13:58:53.005Z,10.60
2022-12-23T14:03:55.643Z,12.52
2022-12-23T14:08:58.360Z,9.40
2022-12-23T14:14:04.430Z,14.02
2022-12-23T14:20:08.747Z,8.65
2022-12-23T14:25:29.641Z,14.77
2022-12-23T14:30:40.469Z,15.10
2022-12-23T14:35:43.181Z,12.50
2022-12-23T14:41:00.642Z,9.57
2022-12-23T14:46:06.539Z,10.40
2022-12-23T14:51:09.235Z,5.60
2022-12-23T14:56:47.348Z,15.55
2022-12-23T15:02:04.320Z,14.88
2022-12-23T15:07:15.193Z,6.00
2022-12-23T15:12:29.869Z,13.35
2022-12-23T15:17:36.417Z,9.33
2022-12-23T15:22:42.818Z,8.45
2022-12-23T15:27:45.620Z,12.93
2022-12-23T15:32:52.408Z,9.75
2022-12-23T15:37:55.104Z,8.80
2022-12-23T15:42:58.400Z,6.82
2022-12-23T15:48:02.957Z,8.18
2022-12-23T15:53:10.782Z,7.53
2022-12-23T15:58:24.755Z,3.17
2022-12-23T16:03:41.396Z,3.75
2022-12-23T16:08:45.543Z,4.18
2022-12-23T16:13:58.660Z,4.15
2022-12-23T16:19:01.667Z,3.15
2022-12-23T16:24:08.929Z,4.80
2022-12-23T16:29:12.723Z,10.48
2022-12-23T16:34:15.434Z,94.50
2022-12-23T16:39:22.898Z,7.88
2022-12-23T16:44:25.699Z,1.77
2022-12-23T16:49:33.777Z,1.13
2022-12-23T16:54:36.728Z,4.20
2022-12-23T16:59:41.208Z,2.38
2022-12-23T17:04:44.150Z,2.20
2022-12-23T17:09:46.754Z,3.33
2022-12-23T17:14:49.287Z,2.85
2022-12-23T17:19:52.443Z,1.23
2022-12-23T17:24:55.028Z,2.35
2022-12-23T17:29:57.537Z,1.55
2022-12-23T17:35:00.060Z,1.27
2022-12-23T17:40:02.641Z,1.42
2022-12-23T17:45:07.035Z,25.23
2022-12-23T17:50:10.409Z,13.38
2022-12-23T17:55:25.745Z,2.15
2022-12-23T18:00:34.130Z,6.72
2022-12-23T18:05:37.345Z,4.55
2022-12-23T18:10:40.887Z,1.42
2022-12-23T18:15:45.520Z,2.47
2022-12-23T18:20:51.327Z,4.40
2022-12-23T18:25:55.062Z,4.15
2022-12-23T18:30:58.236Z,1.50
2022-12-23T18:36:00.869Z,0.85
2022-12-23T18:41:03.493Z,2.58
2022-12-23T18:46:06.313Z,0.43
2022-12-23T18:51:17.234Z,3.58
2022-12-23T18:56:24.328Z,0.73
2022-12-23T19:01:27.409Z,1.73
2022-12-23T19:06:29.961Z,2.38
2022-12-23T19:11:32.765Z,1.77
2022-12-23T19:16:35.457Z,1.83
2022-12-23T19:21:38.153Z,0.90
2022-12-23T19:26:40.764Z,0.68
2022-12-23T19:31:44.363Z,1.00
2022-12-23T19:36:46.977Z,1.85
2022-12-23T19:41:49.691Z,0.50
2022-12-23T19:46:52.329Z,0.77
2022-12-23T19:51:54.888Z,1.10
2022-12-23T19:56:57.800Z,2.58
2022-12-23T20:07:16.898Z,0.70
2022-12-23T20:12:19.464Z,2.35
2022-12-23T20:17:22.012Z,3.22
2022-12-23T20:22:24.602Z,1.27
2022-12-23T20:27:28.265Z,0.73
2022-12-23T20:32:30.983Z,2.22
2022-12-23T20:37:33.644Z,0.40
2022-12-23T20:42:36.621Z,5.82
2022-12-23T20:47:39.802Z,1.73
2022-12-23T20:52:42.391Z,1.20
2022-12-23T20:57:46.175Z,1.77
2022-12-23T21:02:48.740Z,0.70
2022-12-23T21:07:51.369Z,1.38
2022-12-23T21:12:54.085Z,1.98
2022-12-23T21:17:56.742Z,0.68
2022-12-23T21:22:59.378Z,2.35
2022-12-23T21:28:01.960Z,0.75
2022-12-23T21:33:04.546Z,1.55
2022-12-23T21:38:07.060Z,1.30
2022-12-23T21:43:09.585Z,2.10
2022-12-23T21:48:12.228Z,4.10
2022-12-23T21:53:14.813Z,1.75
2022-12-23T21:58:17.635Z,2.65
2022-12-23T22:03:20.131Z,0.93
2022-12-23T22:08:22.664Z,4.53
2022-12-23T22:13:27.762Z,3.33
2022-12-23T22:18:31.699Z,2.05
2022-12-23T22:23:34.536Z,7.10
2022-12-23T22:28:38.717Z,0.80
2022-12-23T22:33:41.307Z,1.27
2022-12-23T22:38:44.621Z,6.55
2022-12-23T22:43:47.250Z,6.45
2022-12-23T22:48:50.445Z,5.50
2022-12-23T22:53:53.531Z,1.75
2022-12-23T22:58:56.715Z,1.15
2022-12-23T23:04:01.918Z,0.85
2022-12-23T23:09:07.193Z,1.50
2022-12-23T23:14:10.599Z,0.57
2022-12-23T23:19:15.138Z,1.45
2022-12-23T23:24:17.789Z,1.65
2022-12-23T23:29:20.342Z,3.05
2022-12-23T23:34:22.854Z,0.63
2022-12-23T23:39:25.546Z,0.85
2022-12-23T23:44:28.099Z,1.75
2022-12-23T23:49:31.172Z,0.85
2022-12-23T23:54:33.785Z,2.97
2022-12-23T23:59:36.853Z,1.48
